Time;durP1;ratioP1;P1;durP2;ratioP2;P2;SDS_P1;SDS_P2;PMS_P1;PMS_P2;Temp;Humidity;BMP_temperature;BMP_pressure;BME280_temperature;BME280_humidity;BME280_pressure;Samples;Min_cycle;Max_cycle;Signal;HPM_P1;HPM_P2
2021/06/27 04:49:11;;;;;;;5.28;3.50;;;;;;;;;;6174097;23;20032;-89
2021/06/27 04:51:37;;;;;;;4.18;3.10;;;;;;;;;;6160572;23;20087;-89
2021/06/27 04:54:03;;;;;;;4.00;2.63;;;;;;;;;;6159821;23;20032;-89
2021/06/27 04:56:29;;;;;;;5.30;3.03;;;;;;;;;;6159064;23;20005;-90
2021/06/27 04:58:54;;;;;;;5.53;3.10;;;;;;;;;;6159170;23;20076;-91
2021/06/27 05:01:19;;;;;;;3.53;3.10;;;;;;;;;;6159282;23;20083;-91
2021/06/27 05:03:45;;;;;;;5.18;3.33;;;;;;;;;;6159249;23;20034;-90
2021/06/27 05:06:11;;;;;;;5.55;3.50;;;;;;;;;;6159007;23;20005;-91
2021/06/27 05:08:36;;;;;;;7.10;3.10;;;;;;;;;;6186187;23;20424;-92
2021/06/27 05:11:02;;;;;;;5.05;3.20;;;;;;;;;;6185303;23;20028;-91
2021/06/27 05:13:28;;;;;;;4.55;3.10;;;;;;;;;;6186048;23;20436;-91
2021/06/27 05:15:53;;;;;;;5.10;3.67;;;;;;;;;;6158557;23;20005;-91
2021/06/27 05:18:20;;;;;;;3.53;3.22;;;;;;;;;;6158857;23;20001;-91
2021/06/27 05:20:46;;;;;;;4.97;3.42;;;;;;;;;;6159446;23;20004;-91
2021/06/27 05:23:11;;;;;;;4.65;3.40;;;;;;;;;;6184613;23;20005;-91
2021/06/27 05:25:37;;;;;;;5.88;3.40;;;;;;;;;;6159454;23;20075;-92
2021/06/27 05:28:02;;;;;;;4.95;3.30;;;;;;;;;;6158501;23;20001;-92
2021/06/27 05:30:28;;;;;;;6.20;3.38;;;;;;;;;;6159117;23;20452;-91
2021/06/27 05:32:54;;;;;;;4.63;3.47;;;;;;;;;;6184913;23;20399;-91
2021/06/27 05:35:19;;;;;;;5.43;4.03;;;;;;;;;;6159053;23;20001;-91
2021/06/27 05:37:44;;;;;;;5.40;3.38;;;;;;;;;;6184490;23;20079;-91
2021/06/27 05:40:10;;;;;;;4.50;3.83;;;;;;;;;;6158875;23;20024;-91
2021/06/27 05:42:36;;;;;;;4.88;3.88;;;;;;;;;;6184973;23;20239;-92
2021/06/27 05:45:02;;;;;;;6.95;4.07;;;;;;;;;;6158960;23;20008;-90
2021/06/27 05:47:28;;;;;;;6.20;3.38;;;;;;;;;;6159641;23;20005;-90
2021/06/27 05:49:53;;;;;;;9.68;3.85;;;;;;;;;;6181458;23;20508;-89
2021/06/27 05:52:18;;;;;;;5.88;3.53;;;;;;;;;;6185022;23;20000;-90
2021/06/27 05:54:44;;;;;;;6.70;3.92;;;;;;;;;;6185303;23;20075;-90
2021/06/27 05:57:10;;;;;;;5.30;3.60;;;;;;;;;;6186883;23;20001;-87
2021/06/27 05:59:35;;;;;;;4.78;3.80;;;;;;;;;;6186576;23;20008;-88
2021/06/27 06:07:40;;;;;;;4.53;3.92;;;;;;;;;;6205286;23;20024;-88
2021/06/27 06:12:58;;;;;;;4.53;4.05;;;;;;;;;;6184462;23;20030;-89
2021/06/27 06:15:24;;;;;;;5.20;3.80;;;;;;;;;;6160215;23;20008;-88
2021/06/27 06:17:49;;;;;;;7.50;3.75;;;;;;;;;;6159517;23;20007;-88
2021/06/27 06:20:15;;;;;;;5.05;3.40;;;;;;;;;;6159560;23;19993;-90
2021/06/27 06:22:41;;;;;;;5.50;3.72;;;;;;;;;;6159504;23;20048;-90
2021/06/27 06:25:06;;;;;;;5.35;4.05;;;;;;;;;;6158522;23;20005;-90
2021/06/27 06:27:32;;;;;;;5.72;3.75;;;;;;;;;;6159001;23;20000;-89
2021/06/27 06:29:57;;;;;;;5.70;3.67;;;;;;;;;;6158407;23;20011;-88
2021/06/27 06:32:23;;;;;;;8.55;3.50;;;;;;;;;;6183979;23;20001;-89
2021/06/27 06:34:48;;;;;;;4.22;3.33;;;;;;;;;;6157727;23;20075;-89
2021/06/27 06:37:14;;;;;;;5.55;3.58;;;;;;;;;;6157489;23;20080;-89
2021/06/27 06:39:39;;;;;;;5.35;3.53;;;;;;;;;;6157635;23;20028;-88
2021/06/27 06:42:05;;;;;;;5.63;3.20;;;;;;;;;;6157325;23;20009;-89
2021/06/27 06:44:31;;;;;;;3.75;3.10;;;;;;;;;;6158058;23;20004;-88
2021/06/27 06:46:56;;;;;;;5.88;3.38;;;;;;;;;;6184319;23;20007;-87
2021/06/27 06:49:22;;;;;;;4.45;3.05;;;;;;;;;;6158027;23;20005;-89
2021/06/27 06:51:47;;;;;;;6.68;3.33;;;;;;;;;;6158564;23;20347;-88
2021/06/27 06:54:13;;;;;;;5.85;3.40;;;;;;;;;;6159101;23;20064;-89
2021/06/27 06:56:39;;;;;;;4.97;3.03;;;;;;;;;;6158369;23;20005;-89
2021/06/27 06:59:04;;;;;;;4.72;2.80;;;;;;;;;;6158223;23;20035;-88
2021/06/27 07:04:51;;;;;;;6.00;3.05;;;;;;;;;;6185428;23;20012;-88
2021/06/27 07:10:38;;;;;;;4.80;2.92;;;;;;;;;;6185144;23;20036;-88
2021/06/27 07:13:04;;;;;;;4.43;3.03;;;;;;;;;;6184673;23;20432;-88
2021/06/27 07:15:29;;;;;;;6.13;2.97;;;;;;;;;;6185409;23;20416;-88
2021/06/27 07:17:55;;;;;;;4.18;2.90;;;;;;;;;;6157668;23;20120;-89
2021/06/27 07:20:20;;;;;;;2.90;2.60;;;;;;;;;;6183976;23;20048;-89
2021/06/27 07:22:46;;;;;;;3.15;2.80;;;;;;;;;;6156829;23;20411;-88
2021/06/27 07:25:13;;;;;;;4.25;2.80;;;;;;;;;;6157688;23;20331;-88
2021/06/27 07:27:38;;;;;;;6.30;3.00;;;;;;;;;;6183620;23;20424;-89
2021/06/27 07:30:05;;;;;;;6.03;3.08;;;;;;;;;;6157689;23;20010;-89
2021/06/27 07:32:31;;;;;;;5.07;2.80;;;;;;;;;;6183956;23;20005;-92
2021/06/27 07:34:56;;;;;;;6.60;3.05;;;;;;;;;;6181655;23;20347;-93
2021/06/27 07:37:22;;;;;;;7.30;3.13;;;;;;;;;;6156939;23;19997;-92
2021/06/27 07:39:47;;;;;;;3.28;2.92;;;;;;;;;;6156567;23;20001;-91
2021/06/27 07:42:13;;;;;;;8.52;3.15;;;;;;;;;;6155296;23;20004;-92
2021/06/27 07:44:38;;;;;;;5.63;3.03;;;;;;;;;;6156110;23;20043;-93
2021/06/27 07:47:04;;;;;;;3.45;3.00;;;;;;;;;;6156431;23;20373;-92
2021/06/27 07:49:30;;;;;;;4.45;2.78;;;;;;;;;;6155716;23;20044;-91
2021/06/27 07:51:56;;;;;;;4.38;3.03;;;;;;;;;;6157312;23;20001;-93
2021/06/27 07:54:21;;;;;;;3.72;3.20;;;;;;;;;;6156579;23;20001;-93
2021/06/27 07:56:51;;;;;;;3.42;2.70;;;;;;;;;;6156647;23;20041;-92
2021/06/27 07:59:29;;;;;;;5.30;2.88;;;;;;;;;;6158045;23;20039;-93
2021/06/27 08:01:55;;;;;;;3.47;2.90;;;;;;;;;;6184133;23;20001;-93
2021/06/27 08:04:29;;;;;;;5.85;3.00;;;;;;;;;;6157527;23;20008;-92
2021/06/27 08:07:08;;;;;;;5.78;2.90;;;;;;;;;;6157875;23;20415;-94
2021/06/27 08:09:37;;;;;;;3.60;3.10;;;;;;;;;;6152688;23;20432;-93
2021/06/27 08:12:03;;;;;;;4.88;2.97;;;;;;;;;;6165080;23;20025;-93
2021/06/27 08:14:28;;;;;;;5.28;3.15;;;;;;;;;;6185506;23;20009;-94
2021/06/27 08:16:54;;;;;;;7.45;3.30;;;;;;;;;;6184341;23;20012;-93
2021/06/27 08:19:20;;;;;;;8.43;3.33;;;;;;;;;;6187135;23;20051;-93
2021/06/27 08:21:45;;;;;;;3.92;3.53;;;;;;;;;;6185622;23;20024;-93
2021/06/27 08:24:11;;;;;;;3.67;3.10;;;;;;;;;;6185083;23;20001;-95
2021/06/27 08:26:37;;;;;;;4.30;3.50;;;;;;;;;;6185524;23;20001;-94
2021/06/27 08:29:03;;;;;;;6.95;3.47;;;;;;;;;;6184361;23;20093;-95
2021/06/27 08:31:28;;;;;;;7.05;3.65;;;;;;;;;;6184840;23;20407;-94
2021/06/27 08:34:33;;;;;;;8.10;3.70;;;;;;;;;;6184484;23;20079;-94
2021/06/27 08:36:59;;;;;;;5.97;3.65;;;;;;;;;;6171010;23;20011;-93
2021/06/27 08:39:24;;;;;;;4.47;3.20;;;;;;;;;;6183987;23;20079;-93
2021/06/27 08:41:50;;;;;;;4.63;3.15;;;;;;;;;;6184970;23;20000;-95
2021/06/27 08:44:16;;;;;;;4.90;3.20;;;;;;;;;;6184782;23;20024;-94
2021/06/27 08:46:43;;;;;;;6.15;3.22;;;;;;;;;;6185375;23;20008;-94
2021/06/27 08:49:13;;;;;;;11.05;3.60;;;;;;;;;;6185012;23;20352;-94
2021/06/27 08:51:40;;;;;;;6.05;3.45;;;;;;;;;;6186553;23;20032;-94
2021/06/27 08:54:11;;;;;;;9.35;3.65;;;;;;;;;;6183673;23;20004;-95
2021/06/27 08:57:05;;;;;;;6.10;3.42;;;;;;;;;;6183897;23;20076;-93
2021/06/27 08:59:31;;;;;;;5.47;3.42;;;;;;;;;;6184286;23;20005;-92
2021/06/27 09:02:00;;;;;;;6.60;3.53;;;;;;;;;;6185634;23;20005;-92
2021/06/27 09:04:26;;;;;;;4.60;3.70;;;;;;;;;;6184559;23;20001;-93
2021/06/27 09:06:52;;;;;;;6.00;3.35;;;;;;;;;;6184424;23;20005;-92
2021/06/27 09:09:20;;;;;;;9.30;3.42;;;;;;;;;;6184348;23;20481;-92
2021/06/27 09:12:04;;;;;;;4.47;3.35;;;;;;;;;;6184704;23;20004;-94
2021/06/27 09:14:36;;;;;;;4.03;3.35;;;;;;;;;;6158990;23;20004;-93
2021/06/27 09:17:25;;;;;;;4.32;3.42;;;;;;;;;;6160046;23;19997;-93
2021/06/27 09:19:59;;;;;;;5.38;3.55;;;;;;;;;;6185933;23;20001;-94
2021/06/27 09:22:40;;;;;;;6.80;3.38;;;;;;;;;;6158737;23;20005;-93
2021/06/27 09:25:14;;;;;;;6.20;3.60;;;;;;;;;;6159501;23;20005;-95
2021/06/27 09:27:40;;;;;;;7.22;3.70;;;;;;;;;;6159626;23;20001;-93
2021/06/27 09:30:19;;;;;;;4.75;3.80;;;;;;;;;;6158159;23;20001;-94
2021/06/27 09:32:57;;;;;;;4.03;3.58;;;;;;;;;;6159005;23;20001;-93
2021/06/27 09:35:40;;;;;;;4.10;3.40;;;;;;;;;;6159309;23;20005;-93
2021/06/27 09:38:20;;;;;;;7.95;3.60;;;;;;;;;;6158045;23;20005;-93
2021/06/27 09:40:46;;;;;;;;;;;;;;;;;;6159172;23;19997;-93
2021/06/27 09:43:18;;;;;;;5.32;3.92;;;;;;;;;;6157547;23;19958;-92
2021/06/27 09:45:49;;;;;;;4.28;3.53;;;;;;;;;;6185036;23;19993;-93
2021/06/27 09:48:14;;;;;;;;;;;;;;;;;;6185402;23;20051;-93
2021/06/27 09:50:40;;;;;;;4.90;3.55;;;;;;;;;;6156921;23;19908;-91
2021/06/27 09:53:05;;;;;;;4.30;3.78;;;;;;;;;;6158137;23;20340;-93
2021/06/27 09:55:31;;;;;;;4.25;3.72;;;;;;;;;;6184141;23;20478;-93
2021/06/27 09:58:16;;;;;;;4.32;3.38;;;;;;;;;;6157453;23;20432;-92
2021/06/27 10:00:41;;;;;;;4.82;3.67;;;;;;;;;;6158218;23;20001;-93
2021/06/27 10:03:10;;;;;;;5.25;3.28;;;;;;;;;;6158402;23;20127;-91
2021/06/27 10:05:35;;;;;;;3.22;2.92;;;;;;;;;;6157774;23;20012;-90
2021/06/27 10:08:01;;;;;;;4.90;3.13;;;;;;;;;;6157068;23;20001;-90
2021/06/27 10:10:27;;;;;;;4.35;2.90;;;;;;;;;;6157852;23;20020;-89
2021/06/27 10:12:52;;;;;;;3.55;3.10;;;;;;;;;;6183229;23;20017;-90
2021/06/27 10:15:18;;;;;;;4.28;2.88;;;;;;;;;;6184508;23;20043;-90
2021/06/27 10:17:46;;;;;;;4.13;3.30;;;;;;;;;;6157475;23;20015;-90
2021/06/27 10:20:16;;;;;;;3.63;3.05;;;;;;;;;;6158048;23;20021;-91
2021/06/27 10:22:43;;;;;;;15.75;7.45;;;;;;;;;;6157935;23;20005;-91
2021/06/27 10:25:11;;;;;;;4.57;3.33;;;;;;;;;;6157998;23;20008;-91
2021/06/27 10:27:38;;;;;;;5.40;3.42;;;;;;;;;;6157281;23;20486;-92
2021/06/27 10:30:08;;;;;;;12.30;5.60;;;;;;;;;;6155659;23;20005;-91
2021/06/27 10:32:42;;;;;;;10.45;7.70;;;;;;;;;;6184313;23;20380;-91
2021/06/27 10:35:09;;;;;;;6.25;4.32;;;;;;;;;;6157157;23;20023;-90
2021/06/27 10:37:43;;;;;;;5.20;4.60;;;;;;;;;;6157906;23;20336;-91
2021/06/27 10:40:12;;;;;;;5.22;3.60;;;;;;;;;;6157517;23;20067;-92
2021/06/27 10:42:50;;;;;;;5.82;3.95;;;;;;;;;;6155014;23;20067;-91
2021/06/27 10:45:20;;;;;;;3.65;2.72;;;;;;;;;;6182710;23;20056;-90
2021/06/27 10:47:46;;;;;;;3.47;3.08;;;;;;;;;;6184740;23;20004;-91
2021/06/27 10:50:13;;;;;;;4.75;2.88;;;;;;;;;;6157144;23;20009;-91
2021/06/27 10:52:53;;;;;;;3.40;2.85;;;;;;;;;;6157938;23;20080;-91
2021/06/27 10:55:19;;;;;;;4.35;2.80;;;;;;;;;;6157700;23;20012;-91
2021/06/27 10:58:02;;;;;;;5.55;2.67;;;;;;;;;;6158556;23;20009;-92
2021/06/27 11:00:56;;;;;;;3.75;2.40;;;;;;;;;;6157284;23;20008;-94
2021/06/27 11:03:33;;;;;;;14.40;9.65;;;;;;;;;;6183608;23;20005;-91
2021/06/27 11:06:00;;;;;;;14.07;9.15;;;;;;;;;;6157439;23;20083;-91
2021/06/27 11:08:37;;;;;;;5.38;3.90;;;;;;;;;;6156692;23;20004;-91
2021/06/27 11:11:19;;;;;;;3.33;2.92;;;;;;;;;;6157810;23;20005;-92
2021/06/27 11:14:13;;;;;;;8.35;3.90;;;;;;;;;;6177449;23;20017;-90
2021/06/27 11:17:01;;;;;;;8.65;3.45;;;;;;;;;;6182179;23;20012;-90
2021/06/27 11:19:29;;;;;;;7.03;5.03;;;;;;;;;;6178297;23;20486;-90
2021/06/27 11:22:16;;;;;;;4.05;3.20;;;;;;;;;;6181863;23;20008;-92
2021/06/27 11:24:41;;;;;;;4.20;3.13;;;;;;;;;;6181576;23;20000;-88
2021/06/27 11:27:26;;;;;;;3.45;2.40;;;;;;;;;;6181392;23;20454;-89
2021/06/27 11:29:52;;;;;;;3.42;2.35;;;;;;;;;;6183596;23;20005;-87
2021/06/27 11:32:17;;;;;;;5.35;2.65;;;;;;;;;;6182067;23;20419;-87
2021/06/27 11:34:57;;;;;;;3.00;2.75;;;;;;;;;;6183426;23;20139;-87
2021/06/27 11:37:22;;;;;;;4.53;3.30;;;;;;;;;;6183832;23;20374;-87
2021/06/27 11:39:55;;;;;;;3.75;3.00;;;;;;;;;;6183616;23;19997;-88
2021/06/27 11:42:26;;;;;;;5.53;3.05;;;;;;;;;;6183546;23;20020;-88
2021/06/27 11:45:06;;;;;;;4.57;2.78;;;;;;;;;;6183951;23;19997;-87
2021/06/27 11:47:32;;;;;;;6.93;3.15;;;;;;;;;;6182041;23;20001;-88
2021/06/27 11:49:58;;;;;;;5.05;2.60;;;;;;;;;;6183465;23;20008;-87
2021/06/27 11:52:24;;;;;;;5.10;2.95;;;;;;;;;;6183747;23;20016;-87
2021/06/27 11:54:49;;;;;;;3.67;3.00;;;;;;;;;;6183555;23;20120;-87
2021/06/27 11:57:17;;;;;;;5.60;2.65;;;;;;;;;;6184004;23;20000;-87
2021/06/27 11:59:54;;;;;;;3.33;2.63;;;;;;;;;;6183963;23;20462;-88
2021/06/27 12:02:26;;;;;;;4.80;2.70;;;;;;;;;;6183472;23;20016;-88
2021/06/27 12:04:57;;;;;;;3.42;2.40;;;;;;;;;;6182229;23;20436;-86
2021/06/27 12:07:26;;;;;;;;;;;;;;;;;;6183232;23;20001;-88
2021/06/27 12:09:52;;;;;;;5.30;2.33;;;;;;;;;;6182162;23;19930;-87
2021/06/27 12:12:57;;;;;;;3.35;2.40;;;;;;;;;;6181847;23;20060;-88
2021/06/27 12:15:22;;;;;;;5.20;2.70;;;;;;;;;;6181940;23;20005;-87
2021/06/27 12:17:56;;;;;;;2.80;2.40;;;;;;;;;;6182454;23;20011;-87
2021/06/27 12:20:22;;;;;;;2.75;2.38;;;;;;;;;;6181842;23;20074;-87
2021/06/27 12:23:00;;;;;;;8.68;2.85;;;;;;;;;;6183414;23;19997;-88
2021/06/27 12:25:31;;;;;;;3.97;2.55;;;;;;;;;;6182241;23;20001;-87
2021/06/27 12:28:03;;;;;;;3.20;2.33;;;;;;;;;;6182996;23;20005;-87
2021/06/27 12:30:41;;;;;;;4.97;2.95;;;;;;;;;;6181466;23;20033;-89
2021/06/27 12:33:09;;;;;;;4.75;2.75;;;;;;;;;;6182169;23;20367;-87
2021/06/27 12:35:39;;;;;;;3.10;2.55;;;;;;;;;;6183303;23;20375;-86
2021/06/27 12:38:09;;;;;;;10.45;2.70;;;;;;;;;;6181547;23;20035;-86
2021/06/27 12:40:40;;;;;;;5.13;2.87;;;;;;;;;;6180908;23;20343;-86
2021/06/27 12:43:19;;;;;;;4.95;2.72;;;;;;;;;;6183122;23;20039;-87
2021/06/27 12:45:44;;;;;;;3.88;2.70;;;;;;;;;;6183639;23;20066;-87
2021/06/27 12:48:10;;;;;;;3.47;2.67;;;;;;;;;;6181751;23;20478;-87
2021/06/27 12:50:38;;;;;;;3.78;2.47;;;;;;;;;;6181690;23;20036;-88
2021/06/27 12:53:06;;;;;;;4.25;2.55;;;;;;;;;;6182286;23;19997;-87
2021/06/27 12:55:33;;;;;;;3.03;2.35;;;;;;;;;;6181881;23;20432;-87
2021/06/27 12:57:59;;;;;;;4.65;2.35;;;;;;;;;;6183442;23;20095;-88
2021/06/27 13:00:29;;;;;;;3.33;2.47;;;;;;;;;;6184642;23;20001;-88
2021/06/27 13:02:54;;;;;;;14.90;3.58;;;;;;;;;;6184843;23;20001;-90
2021/06/27 13:05:20;;;;;;;5.88;2.85;;;;;;;;;;6183965;23;20064;-90
2021/06/27 13:07:56;;;;;;;5.60;2.85;;;;;;;;;;6183961;23;20427;-91
2021/06/27 13:10:25;;;;;;;6.68;2.72;;;;;;;;;;6184704;23;20043;-92
2021/06/27 13:12:58;;;;;;;4.82;2.45;;;;;;;;;;6183514;23;20025;-91
2021/06/27 13:15:57;;;;;;;3.17;2.83;;;;;;;;;;6183618;23;20005;-90
2021/06/27 13:18:24;;;;;;;5.13;2.95;;;;;;;;;;6173041;23;20012;-92
2021/06/27 13:20:52;;;;;;;3.97;2.80;;;;;;;;;;6185258;23;20000;-92
2021/06/27 13:23:18;;;;;;;3.67;2.30;;;;;;;;;;6183894;23;20339;-91
2021/06/27 13:25:51;;;;;;;5.22;2.88;;;;;;;;;;6185156;23;20088;-92
2021/06/27 13:28:25;;;;;;;3.38;2.50;;;;;;;;;;6183006;23;19997;-90
2021/06/27 13:31:01;;;;;;;5.63;3.00;;;;;;;;;;6185160;23;20005;-90
2021/06/27 13:33:29;;;;;;;4.50;3.00;;;;;;;;;;6183515;23;20462;-91
2021/06/27 13:36:13;;;;;;;6.03;2.90;;;;;;;;;;6183109;23;20001;-91
2021/06/27 13:38:45;;;;;;;4.50;2.58;;;;;;;;;;6185519;23;20036;-91
2021/06/27 13:41:16;;;;;;;3.88;2.83;;;;;;;;;;6184281;23;20020;-92
2021/06/27 13:43:41;;;;;;;5.85;2.70;;;;;;;;;;6183001;23;20004;-91
2021/06/27 13:46:07;;;;;;;4.57;2.45;;;;;;;;;;6185047;23;20347;-93
2021/06/27 13:48:32;;;;;;;3.65;2.63;;;;;;;;;;6182407;23;20470;-90
2021/06/27 13:50:58;;;;;;;3.03;2.72;;;;;;;;;;6183897;23;20071;-90
2021/06/27 13:53:23;;;;;;;2.88;2.40;;;;;;;;;;6182628;23;20001;-91
2021/06/27 13:55:49;;;;;;;4.38;2.80;;;;;;;;;;6185646;23;20004;-89
2021/06/27 13:58:15;;;;;;;4.60;2.50;;;;;;;;;;6182573;23;20001;-88
2021/06/27 14:00:41;;;;;;;4.13;2.75;;;;;;;;;;6182611;23;20024;-89
2021/06/27 14:03:07;;;;;;;6.30;2.58;;;;;;;;;;6184662;23;20005;-88
2021/06/27 14:05:32;;;;;;;5.78;2.70;;;;;;;;;;6184289;23;20017;-89
2021/06/27 14:07:58;;;;;;;4.22;2.20;;;;;;;;;;6184765;23;20001;-88
2021/06/27 14:10:26;;;;;;;3.33;2.50;;;;;;;;;;6183676;23;20416;-88
2021/06/27 14:12:52;;;;;;;3.88;2.65;;;;;;;;;;6183788;23;20091;-89
2021/06/27 14:15:21;;;;;;;4.00;2.53;;;;;;;;;;6182523;23;20431;-90
2021/06/27 14:17:53;;;;;;;5.03;2.63;;;;;;;;;;6184373;23;20336;-88
2021/06/27 14:20:20;;;;;;;10.27;2.60;;;;;;;;;;6184541;23;20024;-87
2021/06/27 14:22:48;;;;;;;5.57;2.47;;;;;;;;;;6182543;23;20001;-88
2021/06/27 14:25:14;;;;;;;3.22;2.50;;;;;;;;;;6183576;23;20025;-88
2021/06/27 14:27:39;;;;;;;6.32;2.40;;;;;;;;;;6155030;23;20001;-88
2021/06/27 14:30:07;;;;;;;5.45;2.50;;;;;;;;;;6155922;23;20329;-89
2021/06/27 14:32:34;;;;;;;6.80;2.10;;;;;;;;;;6183561;23;19997;-89
2021/06/27 14:35:00;;;;;;;2.72;2.08;;;;;;;;;;6156381;23;20005;-88
2021/06/27 14:37:25;;;;;;;3.85;2.28;;;;;;;;;;6183459;23;20068;-89
2021/06/27 14:39:51;;;;;;;8.48;2.25;;;;;;;;;;6156970;23;19997;-89
2021/06/27 14:42:17;;;;;;;5.20;1.98;;;;;;;;;;6183612;23;20008;-88
2021/06/27 14:44:42;;;;;;;3.33;1.98;;;;;;;;;;6184293;23;20001;-92
2021/06/27 14:47:08;;;;;;;4.28;1.98;;;;;;;;;;6157421;23;20092;-87
2021/06/27 14:49:34;;;;;;;7.00;2.05;;;;;;;;;;6184074;23;20005;-89
2021/06/27 14:51:59;;;;;;;7.65;2.38;;;;;;;;;;6183102;23;20438;-87
2021/06/27 14:54:25;;;;;;;6.43;2.00;;;;;;;;;;6155261;23;20004;-88
2021/06/27 14:56:50;;;;;;;4.07;2.20;;;;;;;;;;6156076;23;20028;-89
2021/06/27 14:59:16;;;;;;;7.75;2.33;;;;;;;;;;6157210;23;20080;-88
2021/06/27 15:01:42;;;;;;;3.92;2.00;;;;;;;;;;6156947;23;20001;-89
2021/06/27 15:04:08;;;;;;;3.90;2.20;;;;;;;;;;6157274;23;20008;-88
2021/06/27 15:06:33;;;;;;;4.97;2.10;;;;;;;;;;6157296;23;20001;-88
2021/06/27 15:08:59;;;;;;;3.17;2.03;;;;;;;;;;6182573;23;20064;-89
2021/06/27 15:11:24;;;;;;;4.40;1.90;;;;;;;;;;6156321;23;20008;-88
2021/06/27 15:13:50;;;;;;;3.05;1.95;;;;;;;;;;6182407;23;20036;-90
2021/06/27 15:16:19;;;;;;;3.17;1.58;;;;;;;;;;6184508;23;20024;-89
2021/06/27 15:18:45;;;;;;;4.50;1.98;;;;;;;;;;6184316;23;20008;-90
2021/06/27 15:21:11;;;;;;;4.45;1.70;;;;;;;;;;6156426;23;20423;-90
2021/06/27 15:23:37;;;;;;;4.50;2.08;;;;;;;;;;6184244;23;20001;-89
2021/06/27 15:26:05;;;;;;;7.55;1.90;;;;;;;;;;6156738;23;20005;-89
2021/06/27 15:28:30;;;;;;;2.08;1.60;;;;;;;;;;6157292;23;20383;-89
2021/06/27 15:30:56;;;;;;;3.03;1.52;;;;;;;;;;6183741;23;20002;-89
2021/06/27 15:33:24;;;;;;;2.92;1.67;;;;;;;;;;6157840;23;20067;-90
2021/06/27 15:35:50;;;;;;;4.00;2.05;;;;;;;;;;6184385;23;20024;-90
2021/06/27 15:38:16;;;;;;;4.88;1.55;;;;;;;;;;6183577;23;20004;-90
2021/06/27 15:40:41;;;;;;;3.40;1.75;;;;;;;;;;6157652;23;19997;-90
2021/06/27 15:43:07;;;;;;;6.05;2.00;;;;;;;;;;6157984;23;20423;-87
2021/06/27 15:45:32;;;;;;;8.90;1.90;;;;;;;;;;6182980;23;20005;-88
2021/06/27 15:47:58;;;;;;;2.95;1.85;;;;;;;;;;6157000;23;20432;-87
2021/06/27 15:50:23;;;;;;;4.97;1.63;;;;;;;;;;6157124;23;20124;-88
2021/06/27 15:52:49;;;;;;;4.18;2.08;;;;;;;;;;6182745;23;20016;-87
2021/06/27 15:55:14;;;;;;;5.85;2.03;;;;;;;;;;6184188;23;20001;-88
2021/06/27 15:57:43;;;;;;;3.03;2.00;;;;;;;;;;6157664;23;20084;-87
2021/06/27 16:00:09;;;;;;;4.10;1.63;;;;;;;;;;6183589;23;19993;-87
2021/06/27 16:02:34;;;;;;;6.40;2.00;;;;;;;;;;6157176;23;20009;-89
2021/06/27 16:05:00;;;;;;;5.32;1.60;;;;;;;;;;6183928;23;20379;-88
2021/06/27 16:07:25;;;;;;;5.38;2.00;;;;;;;;;;6157605;23;20005;-88
2021/06/27 16:09:51;;;;;;;5.00;1.67;;;;;;;;;;6156725;23;20071;-89
2021/06/27 16:12:16;;;;;;;4.28;1.88;;;;;;;;;;6183675;23;20079;-90
2021/06/27 16:14:42;;;;;;;2.55;1.90;;;;;;;;;;6157257;23;20045;-88
2021/06/27 16:17:07;;;;;;;3.25;1.98;;;;;;;;;;6183502;23;20009;-89
2021/06/27 16:19:38;;;;;;;4.32;2.00;;;;;;;;;;6182860;23;20015;-89
2021/06/27 16:22:04;;;;;;;4.65;2.00;;;;;;;;;;6183905;23;20078;-89
2021/06/27 16:24:31;;;;;;;4.38;1.55;;;;;;;;;;6157174;23;20060;-88
2021/06/27 16:26:59;;;;;;;7.68;2.03;;;;;;;;;;6157442;23;20005;-90
2021/06/27 16:29:25;;;;;;;7.43;1.67;;;;;;;;;;6157486;23;20074;-88
2021/06/27 16:31:50;;;;;;;5.88;2.05;;;;;;;;;;6157380;23;20001;-88
2021/06/27 16:34:17;;;;;;;4.38;1.98;;;;;;;;;;6184955;23;19998;-87
2021/06/27 16:36:43;;;;;;;5.00;2.78;;;;;;;;;;6158753;23;20024;-87
2021/06/27 16:39:08;;;;;;;4.32;2.70;;;;;;;;;;6158932;23;19998;-88
2021/06/27 16:41:34;;;;;;;22.73;16.85;;;;;;;;;;6158045;23;20067;-88
2021/06/27 16:44:00;;;;;;;9.63;2.78;;;;;;;;;;6185360;23;20005;-85
2021/06/27 16:46:26;;;;;;;8.45;4.13;;;;;;;;;;6158403;23;20386;-88
2021/06/27 16:48:54;;;;;;;2.70;1.80;;;;;;;;;;6185003;23;20003;-87
2021/06/27 16:51:24;;;;;;;9.02;2.10;;;;;;;;;;6159099;23;20004;-87
2021/06/27 16:53:50;;;;;;;1.95;1.75;;;;;;;;;;6184786;23;20001;-87
2021/06/27 16:56:17;;;;;;;5.47;2.17;;;;;;;;;;6185061;23;20073;-86
2021/06/27 16:58:42;;;;;;;4.18;1.70;;;;;;;;;;6158536;23;20347;-87
2021/06/27 17:01:08;;;;;;;5.72;1.90;;;;;;;;;;6158111;23;20001;-86
2021/06/27 17:03:33;;;;;;;4.35;1.95;;;;;;;;;;6159392;23;20005;-86
2021/06/27 17:06:03;;;;;;;2.80;1.65;;;;;;;;;;6158459;23;20005;-88
2021/06/27 17:08:30;;;;;;;5.63;1.73;;;;;;;;;;6185185;23;20088;-87
2021/06/27 17:10:55;;;;;;;5.88;2.40;;;;;;;;;;6184783;23;19993;-87
2021/06/27 17:13:29;;;;;;;7.07;2.70;;;;;;;;;;6173693;23;20027;-87
2021/06/27 17:15:55;;;;;;;8.93;2.30;;;;;;;;;;6184192;23;20343;-87
2021/06/27 17:18:21;;;;;;;8.38;4.43;;;;;;;;;;6184165;23;19997;-87
2021/06/27 17:20:48;;;;;;;19.48;14.55;;;;;;;;;;6182561;23;20009;-87
2021/06/27 17:23:17;;;;;;;5.95;5.13;;;;;;;;;;6208373;23;20001;-87
2021/06/27 17:25:44;;;;;;;27.60;19.58;;;;;;;;;;6183446;23;20004;-86
2021/06/27 17:28:09;;;;;;;11.07;6.55;;;;;;;;;;6183032;23;20398;-85
2021/06/27 17:30:35;;;;;;;4.88;2.08;;;;;;;;;;6183138;23;19993;-86
2021/06/27 17:33:01;;;;;;;13.93;10.73;;;;;;;;;;6184912;23;20048;-86
2021/06/27 17:35:26;;;;;;;5.60;3.50;;;;;;;;;;6184435;23;20005;-86
2021/06/27 17:37:53;;;;;;;7.63;4.40;;;;;;;;;;6183406;23;20061;-86
2021/06/27 17:40:18;;;;;;;9.05;5.13;;;;;;;;;;6183625;23;20009;-86
2021/06/27 17:42:45;;;;;;;7.72;4.35;;;;;;;;;;6183426;23;20744;-86
2021/06/27 17:45:12;;;;;;;11.27;6.72;;;;;;;;;;6183513;23;20004;-86
2021/06/27 17:47:38;;;;;;;7.10;3.58;;;;;;;;;;6184787;23;20076;-86
2021/06/27 17:50:05;;;;;;;4.10;2.50;;;;;;;;;;6183066;23;20032;-87
2021/06/27 17:52:30;;;;;;;5.10;1.73;;;;;;;;;;6183609;23;20001;-87
2021/06/27 17:54:56;;;;;;;3.75;1.88;;;;;;;;;;6183561;23;20438;-87
2021/06/27 17:57:21;;;;;;;5.22;1.92;;;;;;;;;;6183135;23;20012;-87
2021/06/27 17:59:47;;;;;;;4.88;1.60;;;;;;;;;;6182421;23;20009;-86
2021/06/27 18:02:13;;;;;;;3.17;1.92;;;;;;;;;;6183563;23;20080;-87
2021/06/27 18:04:38;;;;;;;4.43;1.60;;;;;;;;;;6182806;23;20001;-87
2021/06/27 18:07:04;;;;;;;6.40;1.77;;;;;;;;;;6184283;23;20001;-87
2021/06/27 18:09:30;;;;;;;5.30;1.90;;;;;;;;;;6183323;23;20336;-87
2021/06/27 18:11:55;;;;;;;4.63;1.70;;;;;;;;;;6182389;23;20108;-87
2021/06/27 18:14:21;;;;;;;2.88;1.83;;;;;;;;;;6157715;23;19997;-86
2021/06/27 18:16:47;;;;;;;3.00;1.65;;;;;;;;;;6184349;23;20031;-87
2021/06/27 18:19:13;;;;;;;3.65;1.80;;;;;;;;;;6184028;23;20000;-87
2021/06/27 18:21:38;;;;;;;6.40;1.67;;;;;;;;;;6183708;23;20008;-87
2021/06/27 18:24:05;;;;;;;3.35;1.80;;;;;;;;;;6158071;23;20001;-87
2021/06/27 18:26:31;;;;;;;3.13;1.55;;;;;;;;;;6156511;23;20039;-86
2021/06/27 18:28:57;;;;;;;2.88;1.77;;;;;;;;;;6156449;23;20059;-87
2021/06/27 18:31:24;;;;;;;6.65;1.90;;;;;;;;;;6157502;23;20703;-87
2021/06/27 18:33:50;;;;;;;2.65;1.73;;;;;;;;;;6156184;23;19997;-87
2021/06/27 18:36:19;;;;;;;4.28;1.67;;;;;;;;;;6157609;23;20440;-87
2021/06/27 18:38:45;;;;;;;3.15;1.73;;;;;;;;;;6184392;23;20068;-87
2021/06/27 18:41:11;;;;;;;4.60;1.92;;;;;;;;;;6183162;23;20001;-86
2021/06/27 18:43:37;;;;;;;3.47;1.73;;;;;;;;;;6183149;23;20366;-87
2021/06/27 18:46:04;;;;;;;2.78;1.95;;;;;;;;;;6183150;23;20008;-87
2021/06/27 18:48:29;;;;;;;5.30;1.77;;;;;;;;;;6156977;23;20027;-87
2021/06/27 18:50:55;;;;;;;4.60;1.85;;;;;;;;;;6157284;23;20427;-87
2021/06/27 18:53:21;;;;;;;3.63;1.70;;;;;;;;;;6157369;23;20032;-87
2021/06/27 18:55:47;;;;;;;5.00;1.80;;;;;;;;;;6156595;23;20028;-86
2021/06/27 18:58:13;;;;;;;4.28;2.00;;;;;;;;;;6183147;23;20001;-87
2021/06/27 19:00:41;;;;;;;6.35;2.00;;;;;;;;;;6156593;23;20016;-87
2021/06/27 19:03:06;;;;;;;3.47;1.73;;;;;;;;;;6155935;23;20036;-87
2021/06/27 19:05:33;;;;;;;4.53;1.95;;;;;;;;;;6156473;23;20005;-88
2021/06/27 19:07:59;;;;;;;3.55;1.58;;;;;;;;;;6157844;23;20028;-88
2021/06/27 19:10:26;;;;;;;4.47;1.83;;;;;;;;;;6183064;23;20059;-87
2021/06/27 19:12:52;;;;;;;6.05;1.92;;;;;;;;;;6183353;23;20095;-87
2021/06/27 19:15:19;;;;;;;3.15;1.75;;;;;;;;;;6156701;23;20439;-87
2021/06/27 19:17:46;;;;;;;66.35;5.93;;;;;;;;;;6183427;23;19997;-87
2021/06/27 19:20:16;;;;;;;3.10;1.98;;;;;;;;;;6156472;23;20009;-87
2021/06/27 19:22:43;;;;;;;6.70;2.47;;;;;;;;;;6183149;23;20079;-89
2021/06/27 19:25:11;;;;;;;2.55;2.17;;;;;;;;;;6156353;23;20001;-88
2021/06/27 19:27:38;;;;;;;6.32;2.40;;;;;;;;;;6157083;23;20447;-89
2021/06/27 19:30:06;;;;;;;6.20;2.30;;;;;;;;;;6157350;23;19997;-88
2021/06/27 19:32:31;;;;;;;3.67;2.20;;;;;;;;;;6156388;23;20009;-89
2021/06/27 19:34:57;;;;;;;4.75;2.53;;;;;;;;;;6182503;23;20442;-87
2021/06/27 19:37:29;;;;;;;3.25;2.15;;;;;;;;;;6155728;23;20005;-86
2021/06/27 19:39:55;;;;;;;4.63;2.67;;;;;;;;;;6130321;23;20044;-83
2021/06/27 19:42:24;;;;;;;5.25;2.22;;;;;;;;;;6154963;23;20000;-83
2021/06/27 19:44:50;;;;;;;5.50;2.47;;;;;;;;;;6182620;23;20008;-83
2021/06/27 19:47:16;;;;;;;4.55;2.42;;;;;;;;;;6183117;23;20005;-84
2021/06/27 19:49:42;;;;;;;6.63;2.50;;;;;;;;;;6183326;23;20052;-84
2021/06/27 19:52:11;;;;;;;7.07;2.70;;;;;;;;;;6182503;23;20436;-83